Latest Coastal Weather Observations for Hervey Bay

IDQ60701

Issued at 6:45 am EST Wednesday 30 July 2014 (issued every 10 minutes, with the page automatically refreshed every 10 minutes)

About coastal observations | Map of coastal stations | Coastal observations for QLD | Marine services | Other Formats
Station Details ID: 040405 Name: HERVEY BAY AIRPORT Lat: -25.32 Lon: 152.88 Height: 12.98 m
Data from the previous 72 hours. | See also: Recent months at Hervey Bay
Date/Time
EST
Temp

°C
Wind Pressure Rain
since 9am
mm
Weather Cloud Vis
km
Sea
Height
m
Swell
Dir
 
Speed
knots
Gust
knots
hPa Trend Height
m
Period
s
Dir
30/06:30am 7.7 WNW 0 0 1023.2 - 0.2 - Cloudy 0.2 - - - -
30/06:05am 7.5 CALM 0 0 1023.0 - 0.2 - Partly cloudy 5 - - - -
30/06:00am 7.5 CALM 0 0 1022.8 - 0.2 - Partly cloudy 10 - - - -
30/05:51am 7.5 CALM 0 0 1022.8 - 0.2 - Partly cloudy 10 - - - -
30/05:30am 7.4 CALM 0 0 1022.6 - 0.2 - - 10 - - - -
30/05:03am 7.7 CALM 0 0 1022.2 - 0.2 - - 10 - - - -
30/05:00am 7.6 CALM 0 0 1022.2 - 0.2 - - 10 - - - -
30/04:40am 7.6 CALM 0 0 1022.1 - 0.2 - - 5 - - - -
30/04:30am 7.7 CALM 0 0 1022.0 - 0.2 - - 10 - - - -
30/04:19am 7.9 CALM 0 0 1022.0 - 0.2 - - 10 - - - -
30/04:00am 8.2 CALM 0 0 1021.9 - 0.2 - - 3 - - - -
30/03:30am 8.3 CALM 0 0 1021.9 - 0.2 - - 10 - - - -
30/03:00am 8.4 CALM 0 0 1021.7 - 0.2 - - 2 - - - -
30/02:58am 8.4 CALM 0 0 1021.8 - 0.2 - - 5 - - - -
30/02:33am 9.0 S 1 3 1021.8 - 0.2 - - 10 - - - -
30/02:30am 9.0 SSW 1 3 1021.8 - 0.2 - - 10 - - - -
30/02:09am 9.2 CALM 0 0 1021.8 - 0.2 - - 2 - - - -
30/02:00am 9.6 SSW 1 3 1021.8 - 0.2 - - 10 - - - -
30/01:30am 10.5 SSW 4 5 1021.8 - 0.2 - - 10 - - - -
30/01:27am 10.7 SSW 4 6 1021.8 - 0.2 - - 10 - - - -
30/01:00am 10.5 SSW 4 5 1021.7 - 0.2 - - 0.6 - - - -
30/12:48am 10.0 SSW 4 5 1021.7 - 0.2 - - 5 - - - -
30/12:30am 10.1 WSW 3 6 1021.9 - 0.2 - - 10 - - - -
30/12:00am 10.3 WNW 0 0 1021.7 - 0.2 - - 10 - - - -
 
Date/Time
EST
Temp

°C
Wind Pressure Rain
since 9am
mm
Weather Cloud Vis
km
Sea
Height
m
Swell
Dir
 
Speed
knots
Gust
knots
hPa Trend Height
m
Period
s
Dir
29/11:30pm 11.3 CALM 0 0 1021.8 - 0.2 - - 10 - - - -
29/11:00pm 12.6 CALM 0 0 1021.8 - 0.2 - - 10 - - - -
29/10:30pm 16.5 N 4 6 1021.8 - 0.2 - - 10 - - - -
29/10:00pm 16.6 N 5 7 1021.8 - 0.2 - - 10 - - - -
29/09:30pm 15.7 N 5 7 1021.8 - 0.2 - - 10 - - - -
29/09:00pm 15.7 N 5 6 1021.7 - 0.2 - - 10 - - - -
29/08:30pm 16.0 N 5 7 1021.7 - 0.2 - - 10 - - - -
29/08:00pm 16.4 N 5 6 1021.6 - 0.2 - - 10 - - - -
29/07:30pm 16.1 N 6 7 1021.5 - 0.2 - - 10 - - - -
29/07:00pm 14.2 N 5 6 1021.3 - 0.2 - - 10 - - - -
29/06:30pm 14.9 NNE 4 5 1021.1 - 0.2 - - 10 - - - -
29/06:00pm 16.6 NNE 4 5 1020.6 - 0.2 - - 10 - - - -
29/05:30pm 17.9 NNE 5 6 1020.5 - 0.2 - - 10 - - - -
29/05:00pm 19.0 N 6 8 1020.4 - 0.2 - - 10 - - - -
29/04:30pm 20.1 N 9 13 1020.1 - 0.2 - - 10 - - - -
29/04:00pm 20.8 N 9 11 1020.0 - 0.2 - - 10 - - - -
29/03:30pm 21.0 N 10 14 1019.8 - 0.2 - - 10 - - - -
29/03:00pm 21.8 N 10 13 1019.7 - 0.2 - - 10 - - - -
29/02:30pm 21.5 N 11 15 1019.9 - 0.2 - - 10 - - - -
29/02:00pm 22.8 N 9 13 1020.2 - 0.2 - - 10 - - - -
29/01:30pm 22.8 N 9 14 1020.6 - 0.2 - - 10 - - - -
29/01:00pm 22.0 N 11 15 1021.1 - 0.2 - - 10 - - - -
29/12:30pm 22.0 N 10 15 1021.5 - 0.2 - - - - - - -
29/12:00pm 22.3 NNW 9 13 1021.9 - 0.2 - - 10 - - - -
29/11:30am 22.0 N 9 15 1022.6 - 0.2 - - 10 - - - -
29/11:00am 22.3 NNW 7 14 1023.2 - 0.2 - - 10 - - - -
29/10:30am - NW 8 11 1023.3 - 0.0 - - 10 - - - -
29/10:00am 21.2 N 6 11 1023.6 - 0.0 - - 10 - - - -
29/09:30am 20.0 NNW 2 5 1023.9 - 0.0 - - 10 - - - -
29/09:00am 17.1 SW 3 4 1024.0 - 0.0 - - 10 - - - -
29/08:30am 14.7 SSW 3 4 1024.0 - 0.0 - - 10 - - - -
29/08:00am 12.4 SW 3 4 1023.8 - 0.0 - - 10 - - - -
29/07:30am 9.5 CALM 0 0 1023.7 - 0.0 - - 10 - - - -
29/07:00am 7.0 CALM 0 0 1023.3 - 0.0 - - 10 - - - -
29/06:30am 5.8 CALM 0 0 1023.0 - 0.0 - - 10 - - - -
29/06:00am 5.9 CALM 0 0 1022.5 - 0.0 - - 10 - - - -
29/05:30am 6.2 CALM 0 0 1022.2 - 0.0 - - 10 - - - -
29/05:00am 6.2 CALM 0 0 1021.9 - 0.0 - - 10 - - - -
29/04:30am 6.5 CALM 0 0 1021.8 - 0.0 - - 10 - - - -
29/04:00am 6.5 CALM 0 0 1021.7 - 0.0 - - 10 - - - -
29/03:30am 6.8 CALM 0 0 1021.7 - 0.0 - - 10 - - - -
29/03:00am 7.2 SSW 3 4 1021.6 - 0.0 - - 10 - - - -
29/02:30am 7.3 CALM 0 3 1021.7 - 0.0 - - 10 - - - -
29/02:00am 7.8 CALM 0 3 1021.8 - 0.0 - - 10 - - - -
29/01:30am 7.9 S 5 6 1022.0 - 0.0 - - 10 - - - -
29/01:00am 7.6 SSW 2 4 1022.2 - 0.0 - - 10 - - - -
29/12:30am 7.8 SSW 5 6 1022.4 - 0.0 - - 10 - - - -
29/12:00am 7.6 SSW 4 4 1022.1 - 0.0 - - 10 - - - -
 
Date/Time
EST
Temp

°C
Wind Pressure Rain
since 9am
mm
Weather Cloud Vis
km
Sea
Height
m
Swell
Dir
 
Speed
knots
Gust
knots
hPa Trend Height
m
Period
s
Dir
28/11:30pm 7.8 CALM 0 0 1022.3 - 0.0 - - 10 - - - -
28/11:00pm 7.9 CALM 0 0 1022.4 - 0.0 - - 10 - - - -
28/10:30pm 8.3 CALM 0 0 1022.5 - 0.0 - - 10 - - - -
28/10:00pm 8.7 CALM 0 0 1022.4 - 0.0 - - 10 - - - -
28/09:30pm 8.8 CALM 0 0 1022.4 - 0.0 - - 10 - - - -
28/09:00pm 9.2 CALM 0 0 1022.0 - 0.0 - - 10 - - - -
28/08:30pm 9.7 CALM 0 0 1022.2 - 0.0 - - 10 - - - -
28/08:00pm 9.9 CALM 0 0 1021.9 - 0.0 - - 10 - - - -
28/07:30pm 10.5 CALM 0 0 1021.7 - 0.0 - - 10 - - - -
28/07:00pm 11.2 CALM 0 0 1021.6 - 0.0 - - 10 - - - -
28/06:30pm 12.4 CALM 0 0 1021.3 - 0.0 - - 10 - - - -
28/06:00pm 14.5 ENE 5 6 1020.9 - 0.0 - - 10 - - - -
28/05:30pm 15.8 CALM 0 0 1020.8 - 0.0 - - 10 - - - -
28/05:00pm 19.6 N 4 5 1020.6 - 0.0 - - 10 - - - -
28/04:30pm 21.0 NNE 6 9 1020.4 - 0.0 - - 10 - - - -
28/04:00pm 21.4 ENE 8 11 1020.3 - 0.0 - - 10 - - - -
28/03:30pm 22.0 NNE 8 10 1020.3 - 0.0 - - 10 - - - -
28/03:00pm 22.3 N 8 10 1020.2 - 0.0 - - 10 - - - -
28/02:30pm 22.3 NNE 10 13 1020.5 - 0.0 - - 10 - - - -
28/02:00pm 22.6 N 10 12 1020.9 - 0.0 - - 10 - - - -
28/01:30pm 23.0 N 9 13 1021.3 - 0.0 - - 10 - - - -
28/01:00pm 22.9 N 11 15 1021.7 - 0.0 - - 10 - - - -
28/12:30pm 22.4 NNE 6 11 1022.2 - 0.0 - - 10 - - - -
28/12:00pm 22.2 ENE 5 9 1022.6 - 0.0 - - 10 - - - -
28/11:30am 21.7 WNW 3 5 1023.3 - 0.0 - Partly cloudy 10 - - - -
28/11:00am 20.9 WSW 5 7 1023.7 - 0.0 - - 10 - - - -
28/10:30am 20.8 SW 4 6 1024.1 - 0.0 - - 10 - - - -
28/10:00am 19.5 SSW 6 8 1024.4 - 0.0 - - 10 - - - -
28/09:30am 17.7 SW 5 7 1024.5 - 0.0 - - 10 - - - -
28/09:00am 15.9 SSW 5 8 1024.5 - 0.0 - - 10 - - - -
28/08:30am 14.2 SSW 7 9 1024.5 - 0.0 - - 10 - - - -
28/08:00am 12.6 S 5 7 1024.3 - 0.0 - - 10 - - - -
28/07:30am 12.0 SSW 6 9 1024.0 - 0.0 - - 10 - - - -
28/07:00am 10.8 SW 6 8 1023.9 - 0.0 - - 10 - - - -
28/06:30am 10.4 SW 6 8 1023.4 - 0.0 - - 10 - - - -
28/06:00am 10.1 SW 6 7 1023.1 - 0.0 - - 10 - - - -
28/05:30am 8.9 SW 5 6 1022.8 - 0.0 - - 10 - - - -
28/05:00am 8.5 WSW 5 6 1022.6 - 0.0 - - 10 - - - -
28/04:30am 8.8 WSW 4 5 1022.4 - 0.0 - - 10 - - - -
28/04:00am 8.6 SW 4 6 1022.4 - 0.0 - - 10 - - - -
28/03:30am 7.9 SW 4 5 1022.3 - 0.0 - - 10 - - - -
28/03:00am 8.7 SSW 4 5 1022.2 - 0.0 - - 10 - - - -
28/02:30am 8.9 SW 5 6 1022.4 - 0.0 - - 10 - - - -
28/02:00am 8.3 SW 5 6 1022.5 - 0.0 - - 10 - - - -
28/01:30am 8.2 SW 3 4 1022.9 - 0.0 - - 10 - - - -
28/01:00am 8.6 SW 3 4 1023.1 - 0.0 - - 10 - - - -
28/12:32am 9.0 SW 2 4 1023.1 - 0.0 - - 10 - - - -
28/12:30am 9.1 SW 2 4 1023.1 - 0.0 - - 10 - - - -
28/12:00am 8.8 CALM 0 0 1023.1 - 0.0 - - 2 - - - -
 
Date/Time
EST
Temp

°C
Wind Pressure Rain
since 9am
mm
Weather Cloud Vis
km
Sea
Height
m
Swell
Dir
 
Speed
knots
Gust
knots
hPa Trend Height
m
Period
s
Dir
27/11:59pm 8.8 CALM 0 2 1023.2 - 0.0 - - 2 - - - -
27/11:39pm 9.9 SSW 4 4 1023.3 - 0.0 - - 10 - - - -
27/11:30pm 9.5 SW 4 5 1023.4 - 0.0 - - 8 - - - -
27/11:20pm 9.0 SW 3 4 1023.4 - 0.0 - - 4 - - - -
27/11:00pm 9.3 SW 2 4 1023.5 - 0.0 - - 10 - - - -
27/10:30pm 9.1 CALM 0 0 1023.6 - 0.0 - - 10 - - - -
27/10:00pm 9.7 CALM 0 0 1023.4 - 0.0 - - 10 - - - -
27/09:30pm 9.8 CALM 0 0 1023.3 - 0.0 - - 10 - - - -
27/09:00pm 10.2 CALM 0 0 1023.1 - 0.0 - - 10 - - - -
27/08:30pm 11.0 CALM 0 0 1023.3 - 0.0 - - 10 - - - -
27/08:00pm 11.7 SSW 4 4 1023.0 - 0.0 - - 10 - - - -
27/07:30pm 12.4 SW 3 4 1022.8 - 0.0 - - 10 - - - -
27/07:00pm 13.7 CALM 0 0 1022.6 - 0.0 - - 10 - - - -
27/06:30pm 15.9 CALM 0 3 1022.1 - 0.0 - - 10 - - - -
27/06:00pm 18.3 ESE 6 9 1021.4 - 0.0 - - 10 - - - -
27/05:30pm 19.0 SE 8 11 1021.1 - 0.0 - - 10 - - - -
27/05:00pm 20.0 ESE 10 15 1020.8 - 0.0 - - 10 - - - -
27/04:30pm 21.3 ESE 10 13 1020.6 - 0.0 - - 10 - - - -
27/04:00pm 22.2 ESE 10 14 1020.3 - 0.0 - - 10 - - - -
27/03:30pm 22.8 E 12 14 1020.0 - 0.0 - - 10 - - - -
27/03:00pm 24.4 SE 5 10 1019.9 - 0.0 - - 10 - - - -
27/02:30pm 24.0 SSE 7 11 1020.2 - 0.0 - - 10 - - - -
27/02:00pm 23.4 ESE 8 12 1020.4 - 0.0 - - 10 - - - -
27/01:30pm 23.9 SSE 8 12 1020.7 - 0.0 - - 10 - - - -
27/01:00pm 23.5 SE 8 11 1021.1 - 0.0 - - 10 - - - -
27/12:30pm 23.7 ESE 9 12 1021.5 - 0.0 - - 10 - - - -
27/12:00pm 22.5 SSE 7 10 1022.0 - 0.0 - - 10 - - - -
27/11:30am 22.5 S 8 12 1022.7 - 0.0 - - 10 - - - -
27/11:00am 22.1 S 7 11 1023.3 - 0.0 - - 10 - - - -
27/10:30am 21.7 SSE 5 8 1023.8 - 0.0 - - 10 - - - -
27/10:00am 20.7 SSW 6 9 1024.0 - 0.0 - - 10 - - - -
27/09:30am 19.7 SW 6 8 1024.0 - 0.0 - - 10 - - - -
27/09:00am 18.5 WSW 4 6 1024.0 - 0.4 - - 10 - - - -
27/08:30am 17.0 SSW 3 5 1023.9 - 0.4 - - 10 - - - -
27/08:00am 15.7 SW 1 3 1023.7 - 0.4 - - 10 - - - -
27/07:37am 13.8 CALM 0 0 1023.6 - 0.4 - - 9 - - - -
27/07:30am 13.3 CALM 0 0 1023.6 - 0.4 - - 7 - - - -
27/07:00am 10.3 CALM 0 0 1023.6 - 0.4 - Partly cloudy 0.6 - - - -

Other Formats:

Comma delimited format used in spreadsheet applications
http://www.bom.gov.au/fwo/IDQ60701/IDQ60701.95565.axf

JavaScript Object Notation format (JSON) in row-major order
http://www.bom.gov.au/fwo/IDQ60701/IDQ60701.95565.json